createdAt,value
2019-02-21T00:00:04.983Z,2.80
2019-02-21T00:01:05.096Z,2.80
2019-02-21T00:02:04.618Z,2.80
2019-02-21T00:03:04.220Z,2.80
2019-02-21T00:04:04.352Z,2.80
2019-02-21T00:05:04.415Z,2.80
2019-02-21T00:06:04.526Z,2.80
2019-02-21T00:07:04.596Z,2.80
2019-02-21T00:08:04.937Z,2.80
2019-02-21T00:09:05.086Z,2.70
2019-02-21T00:10:04.579Z,2.70
2019-02-21T00:11:04.449Z,2.70
2019-02-21T00:12:05.103Z,2.70
2019-02-21T00:13:04.297Z,2.70
2019-02-21T00:14:04.634Z,2.70
2019-02-21T00:15:04.651Z,2.70
2019-02-21T00:16:04.888Z,2.70
2019-02-21T00:17:05.132Z,2.60
2019-02-21T00:18:04.499Z,2.60
2019-02-21T00:19:04.803Z,2.60
2019-02-21T00:20:04.990Z,2.60
2019-02-21T00:21:04.411Z,2.60
2019-02-21T00:22:04.564Z,2.60
2019-02-21T00:23:04.212Z,2.60
2019-02-21T00:24:04.347Z,2.60
2019-02-21T00:25:04.589Z,2.60
2019-02-21T00:26:04.815Z,2.50
2019-02-21T00:27:04.808Z,2.50
2019-02-21T00:28:04.361Z,2.50
2019-02-21T00:29:04.494Z,2.50
2019-02-21T00:30:04.811Z,2.50
2019-02-21T00:31:05.120Z,2.50
2019-02-21T00:32:09.616Z,2.50
2019-02-21T00:33:05.116Z,2.50
2019-02-21T00:34:05.079Z,2.40
2019-02-21T00:35:04.551Z,2.40
2019-02-21T00:36:04.982Z,2.40
2019-02-21T00:37:05.190Z,2.40
2019-02-21T00:38:04.291Z,2.40
2019-02-21T00:39:04.404Z,2.40
2019-02-21T00:40:04.875Z,2.40
2019-02-21T00:41:04.348Z,2.40
2019-02-21T00:42:04.514Z,2.40
2019-02-21T00:43:04.652Z,2.40
2019-02-21T00:44:05.019Z,2.30
2019-02-21T00:45:05.054Z,2.30
2019-02-21T00:46:04.262Z,2.30
2019-02-21T00:47:04.415Z,2.30
2019-02-21T00:48:04.657Z,2.30
2019-02-21T00:49:05.025Z,2.30
2019-02-21T00:50:04.295Z,2.30
2019-02-21T00:51:04.762Z,2.30
2019-02-21T00:52:05.015Z,2.30
2019-02-21T00:53:04.406Z,2.30
2019-02-21T00:54:04.414Z,2.30
2019-02-21T00:55:04.523Z,2.30
2019-02-21T00:56:04.743Z,2.30
2019-02-21T00:57:04.261Z,2.30
2019-02-21T00:58:04.533Z,2.30
2019-02-21T00:59:04.842Z,2.30
2019-02-21T01:00:04.504Z,2.30
2019-02-21T01:01:04.581Z,2.30
2019-02-21T01:02:04.765Z,2.20
2019-02-21T01:03:05.088Z,2.20
2019-02-21T01:04:04.183Z,2.20
2019-02-21T01:05:04.863Z,2.20
2019-02-21T01:06:09.998Z,2.20
2019-02-21T01:07:04.333Z,2.20
2019-02-21T01:08:05.016Z,2.20
2019-02-21T01:09:05.163Z,2.20
2019-02-21T01:10:04.691Z,2.20
2019-02-21T01:11:04.820Z,2.20
2019-02-21T01:12:04.170Z,2.20
2019-02-21T01:13:04.270Z,2.20
2019-02-21T01:14:04.714Z,2.20
2019-02-21T01:15:05.143Z,2.20
2019-02-21T01:16:04.530Z,2.20
2019-02-21T01:17:04.917Z,2.20
2019-02-21T01:18:05.080Z,2.20
2019-02-21T01:19:04.449Z,2.20
2019-02-21T01:20:04.503Z,2.20
2019-02-21T01:21:04.585Z,2.20
2019-02-21T01:22:04.166Z,2.20
2019-02-21T01:23:04.755Z,2.20
2019-02-21T01:24:05.258Z,2.20
2019-02-21T01:25:05.075Z,2.20
2019-02-21T01:26:04.683Z,2.20
2019-02-21T01:27:04.269Z,2.20
2019-02-21T01:28:04.950Z,2.20
2019-02-21T01:29:10.170Z,2.20
2019-02-21T01:30:04.514Z,2.20
2019-02-21T01:31:04.658Z,2.20
2019-02-21T01:32:04.754Z,2.20
2019-02-21T01:33:04.220Z,2.20
2019-02-21T01:34:04.592Z,2.10
2019-02-21T01:35:04.833Z,2.10
2019-02-21T01:36:05.138Z,2.10
2019-02-21T01:37:05.144Z,2.10
2019-02-21T01:38:04.212Z,2.10
2019-02-21T01:39:04.373Z,2.10
2019-02-21T01:40:05.135Z,2.10
2019-02-21T01:41:04.329Z,2.10
2019-02-21T01:42:04.542Z,2.10
2019-02-21T01:43:04.991Z,2.10
2019-02-21T01:44:05.042Z,2.10
2019-02-21T01:45:04.359Z,2.10
2019-02-21T01:46:04.536Z,2.10
2019-02-21T01:47:04.592Z,2.10
2019-02-21T01:48:04.632Z,2.00
2019-02-21T01:49:09.556Z,2.00
2019-02-21T01:50:04.324Z,2.00
2019-02-21T01:51:04.287Z,2.00
2019-02-21T01:52:04.365Z,2.00
2019-02-21T01:53:04.566Z,2.00
2019-02-21T01:54:05.032Z,2.00
2019-02-21T01:55:05.140Z,2.00
2019-02-21T01:56:04.453Z,1.90
2019-02-21T01:57:04.496Z,1.90
2019-02-21T01:58:04.877Z,1.90
2019-02-21T01:59:05.102Z,1.90
2019-02-21T02:00:04.200Z,1.90
2019-02-21T02:01:08.283Z,1.90
2019-02-21T02:02:04.572Z,1.90
2019-02-21T02:03:05.134Z,1.90
2019-02-21T02:04:04.742Z,1.90
2019-02-21T02:05:04.417Z,1.90
2019-02-21T02:06:04.707Z,1.80
2019-02-21T02:07:04.855Z,1.80
2019-02-21T02:08:04.859Z,1.80
2019-02-21T02:09:05.229Z,1.80
2019-02-21T02:10:04.677Z,1.80
2019-02-21T02:11:04.917Z,1.80
2019-02-21T02:12:05.263Z,1.80
2019-02-21T02:13:04.253Z,1.80
2019-02-21T02:14:04.278Z,1.80
2019-02-21T02:15:04.493Z,1.80
2019-02-21T02:16:04.613Z,1.80
2019-02-21T02:17:04.954Z,1.80
2019-02-21T02:18:04.795Z,1.80
2019-02-21T02:19:05.004Z,1.80
2019-02-21T02:20:13.163Z,1.70
2019-02-21T02:21:04.518Z,1.70
2019-02-21T02:22:04.688Z,1.70
2019-02-21T02:23:04.740Z,1.70
2019-02-21T02:24:04.921Z,1.70
2019-02-21T02:25:04.343Z,1.70
2019-02-21T02:26:04.689Z,1.70
2019-02-21T02:27:04.747Z,1.70
2019-02-21T02:28:05.190Z,1.70
2019-02-21T02:29:09.529Z,1.70
2019-02-21T02:30:05.042Z,1.60
2019-02-21T02:31:04.428Z,1.60
2019-02-21T02:32:04.416Z,1.60
2019-02-21T02:33:04.682Z,1.60
2019-02-21T02:34:04.911Z,1.60
2019-02-21T02:35:05.007Z,1.60
2019-02-21T02:36:04.607Z,1.60
2019-02-21T02:37:05.004Z,1.60
2019-02-21T02:38:05.016Z,1.60
2019-02-21T02:39:04.271Z,1.60
2019-02-21T02:40:04.524Z,1.60
2019-02-21T02:41:04.665Z,1.70
2019-02-21T02:42:05.209Z,1.70
2019-02-21T02:43:04.290Z,1.70
2019-02-21T02:44:04.291Z,1.70
2019-02-21T02:45:04.596Z,1.70
2019-02-21T02:46:04.710Z,1.70
2019-02-21T02:47:04.752Z,1.70
2019-02-21T02:48:05.115Z,1.70
2019-02-21T02:49:04.397Z,1.80
2019-02-21T02:50:04.828Z,1.70
2019-02-21T02:51:04.305Z,1.80
2019-02-21T02:52:04.766Z,1.80
2019-02-21T02:53:04.506Z,1.80
2019-02-21T02:54:05.196Z,1.80
2019-02-21T02:55:04.648Z,1.80
2019-02-21T02:56:04.714Z,1.80
2019-02-21T02:57:04.781Z,1.80
2019-02-21T02:58:06.474Z,1.80
2019-02-21T02:59:04.442Z,1.80
2019-02-21T03:00:05.009Z,1.80
2019-02-21T03:01:04.443Z,1.80
2019-02-21T03:02:04.460Z,1.80
2019-02-21T03:03:04.578Z,1.80
2019-02-21T03:04:04.794Z,1.80
2019-02-21T03:05:05.093Z,1.80
2019-02-21T03:06:04.175Z,1.80
2019-02-21T03:07:04.775Z,1.80
2019-02-21T03:08:04.986Z,1.80
2019-02-21T03:09:04.430Z,1.80
2019-02-21T03:10:04.502Z,1.80
2019-02-21T03:11:05.067Z,1.80
2019-02-21T03:12:04.299Z,1.80
2019-02-21T03:13:05.001Z,1.80
2019-02-21T03:14:04.277Z,1.80
2019-02-21T03:15:04.538Z,1.80
2019-02-21T03:16:04.534Z,1.80
2019-02-21T03:17:05.257Z,1.80
2019-02-21T03:18:04.765Z,1.80
2019-02-21T03:19:04.312Z,1.80
2019-02-21T03:20:04.350Z,1.80
2019-02-21T03:21:04.698Z,1.80
2019-02-21T03:22:04.717Z,1.80
2019-02-21T03:23:04.309Z,1.90
2019-02-21T03:24:04.900Z,1.90
2019-02-21T03:25:04.178Z,1.90
2019-02-21T03:26:04.688Z,1.90
2019-02-21T03:27:04.176Z,1.90
2019-02-21T03:28:04.661Z,1.90
2019-02-21T03:29:09.765Z,1.90
2019-02-21T03:30:05.203Z,1.90
2019-02-21T03:31:04.381Z,1.90
2019-02-21T03:32:04.472Z,1.90
2019-02-21T03:33:04.599Z,1.90
2019-02-21T03:34:04.946Z,1.90
2019-02-21T03:35:05.051Z,1.90
2019-02-21T03:36:05.243Z,2.00
2019-02-21T03:37:04.678Z,2.00
2019-02-21T03:38:04.391Z,2.00
2019-02-21T03:39:04.626Z,2.00
2019-02-21T03:40:05.207Z,2.00
2019-02-21T03:41:04.735Z,2.00
2019-02-21T03:42:04.540Z,2.00
2019-02-21T03:43:04.612Z,2.00
2019-02-21T03:44:04.865Z,2.00
2019-02-21T03:45:04.851Z,2.00
2019-02-21T03:46:04.542Z,2.00
2019-02-21T03:47:05.006Z,2.00
2019-02-21T03:48:04.943Z,2.00
2019-02-21T03:49:04.387Z,2.00
2019-02-21T03:50:05.133Z,2.00
2019-02-21T03:51:04.276Z,2.00
2019-02-21T03:52:04.910Z,2.00
2019-02-21T03:53:04.209Z,2.00
2019-02-21T03:54:04.305Z,2.00
2019-02-21T03:55:04.538Z,2.00
2019-02-21T03:56:04.714Z,2.00
2019-02-21T03:57:04.305Z,2.00
2019-02-21T03:58:04.464Z,2.00
2019-02-21T03:59:04.775Z,2.00
2019-02-21T04:00:04.226Z,2.00
2019-02-21T04:01:04.649Z,2.00
2019-02-21T04:02:05.528Z,2.10
2019-02-21T04:03:04.429Z,2.10
2019-02-21T04:04:04.535Z,2.10
2019-02-21T04:05:04.452Z,2.10
2019-02-21T04:06:04.896Z,2.10
2019-02-21T04:07:05.153Z,2.10
2019-02-21T04:08:04.783Z,2.10
2019-02-21T04:09:05.062Z,2.10
2019-02-21T04:10:05.032Z,2.10
2019-02-21T04:11:04.351Z,2.10
2019-02-21T04:12:04.537Z,2.10
2019-02-21T04:13:04.325Z,2.10
2019-02-21T04:14:04.433Z,2.10
2019-02-21T04:15:04.418Z,2.10
2019-02-21T04:16:05.020Z,2.10
2019-02-21T04:17:04.178Z,2.10
2019-02-21T04:18:04.505Z,2.10
2019-02-21T04:19:04.476Z,2.10
2019-02-21T04:20:04.850Z,2.10
2019-02-21T04:21:04.352Z,2.20
2019-02-21T04:22:04.819Z,2.10
2019-02-21T04:23:05.103Z,2.20
2019-02-21T04:24:04.232Z,2.20
2019-02-21T04:25:04.592Z,2.20
2019-02-21T04:26:04.649Z,2.20
2019-02-21T04:27:04.740Z,2.20
2019-02-21T04:28:04.535Z,2.20
2019-02-21T04:29:05.059Z,2.20
2019-02-21T04:30:04.605Z,2.20
2019-02-21T04:31:09.737Z,2.20
2019-02-21T04:32:14.208Z,2.20
2019-02-21T04:33:04.657Z,2.20
2019-02-21T04:34:04.197Z,2.20
2019-02-21T04:35:04.331Z,2.20
2019-02-21T04:36:05.146Z,2.20
2019-02-21T04:37:05.435Z,2.20
2019-02-21T04:38:04.360Z,2.20
2019-02-21T04:39:04.744Z,2.20
2019-02-21T04:40:05.073Z,2.20
2019-02-21T04:41:04.803Z,2.20
2019-02-21T04:42:04.917Z,2.30
2019-02-21T04:43:05.062Z,2.30
2019-02-21T04:44:04.257Z,2.30
2019-02-21T04:45:04.951Z,2.30
2019-02-21T04:46:05.163Z,2.30
2019-02-21T04:47:04.411Z,2.30
2019-02-21T04:48:04.894Z,2.30
2019-02-21T04:49:04.846Z,2.30
2019-02-21T04:50:04.246Z,2.30
2019-02-21T04:51:04.546Z,2.30
2019-02-21T04:52:04.364Z,2.30
2019-02-21T04:53:05.153Z,2.30
2019-02-21T04:54:04.254Z,2.30
2019-02-21T04:55:04.320Z,2.40
2019-02-21T04:56:04.615Z,2.40
2019-02-21T04:57:04.595Z,2.40
2019-02-21T04:58:04.258Z,2.40
2019-02-21T04:59:06.579Z,2.40
2019-02-21T05:00:04.482Z,2.40
2019-02-21T05:01:05.237Z,2.40
2019-02-21T05:02:04.441Z,2.40
2019-02-21T05:03:04.504Z,2.40
2019-02-21T05:04:05.146Z,2.40
2019-02-21T05:05:04.207Z,2.40
2019-02-21T05:06:04.660Z,2.40
2019-02-21T05:07:04.859Z,2.40
2019-02-21T05:08:04.905Z,2.30
2019-02-21T05:09:07.351Z,2.30
2019-02-21T05:10:04.274Z,2.30
2019-02-21T05:11:04.287Z,2.30
2019-02-21T05:12:04.499Z,2.30
2019-02-21T05:13:04.594Z,2.30
2019-02-21T05:14:04.650Z,2.30
2019-02-21T05:15:04.696Z,2.30
2019-02-21T05:16:05.087Z,2.30
2019-02-21T05:17:05.266Z,2.30
2019-02-21T05:18:04.290Z,2.30
2019-02-21T05:19:04.486Z,2.30
2019-02-21T05:20:04.593Z,2.30
2019-02-21T05:21:05.195Z,2.30
2019-02-21T05:22:04.525Z,2.30
2019-02-21T05:23:04.919Z,2.20
2019-02-21T05:24:05.005Z,2.30
2019-02-21T05:25:05.663Z,2.20
2019-02-21T05:26:04.865Z,2.20
2019-02-21T05:27:04.316Z,2.20
2019-02-21T05:28:04.703Z,2.20
2019-02-21T05:29:09.894Z,2.20
2019-02-21T05:30:04.343Z,2.20
2019-02-21T05:31:05.007Z,2.20
2019-02-21T05:32:04.323Z,2.20
2019-02-21T05:33:04.548Z,2.20
2019-02-21T05:34:04.928Z,2.20
2019-02-21T05:35:04.287Z,2.20
2019-02-21T05:36:04.571Z,2.20
2019-02-21T05:37:04.537Z,2.20
2019-02-21T05:38:04.810Z,2.20
2019-02-21T05:39:04.698Z,2.20
2019-02-21T05:40:04.784Z,2.20
2019-02-21T05:41:05.011Z,2.20
2019-02-21T05:42:04.287Z,2.20
2019-02-21T05:43:04.560Z,2.20
2019-02-21T05:44:04.858Z,2.20
2019-02-21T05:45:04.800Z,2.20
2019-02-21T05:46:05.027Z,2.20
2019-02-21T05:47:04.624Z,2.20
2019-02-21T05:48:05.041Z,2.20
2019-02-21T05:49:04.301Z,2.20
2019-02-21T05:50:04.509Z,2.20
2019-02-21T05:51:04.813Z,2.20
2019-02-21T05:52:04.772Z,2.20
2019-02-21T05:53:04.333Z,2.20
2019-02-21T05:54:04.448Z,2.20
2019-02-21T05:55:04.839Z,2.20
2019-02-21T05:56:04.902Z,2.20
2019-02-21T05:57:04.610Z,2.10
2019-02-21T05:58:05.125Z,2.10
2019-02-21T05:59:04.648Z,2.10
2019-02-21T06:00:04.273Z,2.10
2019-02-21T06:01:04.388Z,2.10
2019-02-21T06:02:04.545Z,2.10
2019-02-21T06:03:05.102Z,2.10
2019-02-21T06:04:04.231Z,2.10
2019-02-21T06:05:04.528Z,2.20
2019-02-21T06:06:04.877Z,2.10
2019-02-21T06:07:04.940Z,2.20
2019-02-21T06:08:05.174Z,2.10
2019-02-21T06:09:04.241Z,2.10
2019-02-21T06:10:04.458Z,2.20
2019-02-21T06:11:04.941Z,2.10
2019-02-21T06:12:05.118Z,2.20
2019-02-21T06:13:05.103Z,2.20
2019-02-21T06:14:04.284Z,2.20
2019-02-21T06:15:04.703Z,2.10
2019-02-21T06:16:04.889Z,2.10
2019-02-21T06:17:04.928Z,2.10
2019-02-21T06:18:05.191Z,2.10
2019-02-21T06:19:04.323Z,2.10
2019-02-21T06:20:04.494Z,2.10
2019-02-21T06:21:04.794Z,2.10
2019-02-21T06:22:10.329Z,2.10
2019-02-21T06:23:04.779Z,2.10
2019-02-21T06:24:04.973Z,2.10
2019-02-21T06:25:04.488Z,2.00
2019-02-21T06:26:04.590Z,2.00
2019-02-21T06:27:04.730Z,2.00
2019-02-21T06:28:04.290Z,2.00
2019-02-21T06:29:09.944Z,2.00
2019-02-21T06:30:04.758Z,2.00
2019-02-21T06:31:04.574Z,2.10
2019-02-21T06:32:13.761Z,2.10
2019-02-21T06:33:05.546Z,2.10
2019-02-21T06:34:04.456Z,2.10
2019-02-21T06:35:04.832Z,2.10
2019-02-21T06:36:05.125Z,2.10
2019-02-21T06:37:04.288Z,2.10
2019-02-21T06:38:05.015Z,2.10
2019-02-21T06:39:05.084Z,2.10
2019-02-21T06:40:04.669Z,2.10
2019-02-21T06:41:04.782Z,2.10
2019-02-21T06:42:05.127Z,2.20
2019-02-21T06:43:04.738Z,2.10
2019-02-21T06:44:05.106Z,2.20
2019-02-21T06:45:04.928Z,2.20
2019-02-21T06:46:04.889Z,2.20
2019-02-21T06:47:05.072Z,2.20
2019-02-21T06:48:04.824Z,2.20
2019-02-21T06:49:04.962Z,2.20
2019-02-21T06:50:04.246Z,2.20
2019-02-21T06:51:04.494Z,2.20
2019-02-21T06:52:04.899Z,2.20
2019-02-21T06:53:05.215Z,2.30
2019-02-21T06:54:04.311Z,2.30
2019-02-21T06:55:05.070Z,2.30
2019-02-21T06:56:04.408Z,2.30
2019-02-21T06:57:04.869Z,2.30
2019-02-21T06:58:05.025Z,2.30
2019-02-21T06:59:04.587Z,2.30
2019-02-21T07:00:05.088Z,2.30
2019-02-21T07:01:04.193Z,2.30
2019-02-21T07:02:04.892Z,2.30
2019-02-21T07:03:15.077Z,2.30
2019-02-21T07:04:04.639Z,2.30
2019-02-21T07:05:05.174Z,2.40
2019-02-21T07:06:04.341Z,2.40
2019-02-21T07:07:04.668Z,2.40
2019-02-21T07:08:05.064Z,2.40
2019-02-21T07:09:04.441Z,2.40
2019-02-21T07:10:04.981Z,2.50
2019-02-21T07:11:06.376Z,2.50
2019-02-21T07:12:04.289Z,2.50
2019-02-21T07:13:04.395Z,2.50
2019-02-21T07:14:04.866Z,2.50
2019-02-21T07:15:04.477Z,2.60
2019-02-21T07:16:04.608Z,2.60
2019-02-21T07:17:04.205Z,2.70
2019-02-21T07:18:04.596Z,2.70
2019-02-21T07:19:05.021Z,2.70
2019-02-21T07:20:04.312Z,2.70
2019-02-21T07:21:04.934Z,2.80
2019-02-21T07:22:06.268Z,2.80
2019-02-21T07:23:05.216Z,2.90
2019-02-21T07:24:04.309Z,2.90
2019-02-21T07:25:04.420Z,2.90
2019-02-21T07:26:04.882Z,3.00
2019-02-21T07:27:04.511Z,3.00
2019-02-21T07:28:11.512Z,3.00
2019-02-21T07:29:10.168Z,3.10
2019-02-21T07:30:04.682Z,3.10
2019-02-21T07:31:04.797Z,3.20
2019-02-21T07:32:04.884Z,3.20
2019-02-21T07:33:05.037Z,3.20
2019-02-21T07:34:06.943Z,3.30
2019-02-21T07:35:04.887Z,3.30
2019-02-21T07:36:05.008Z,3.30
2019-02-21T07:37:04.319Z,3.40
2019-02-21T07:38:04.443Z,3.40
2019-02-21T07:39:16.418Z,3.50
2019-02-21T07:40:05.120Z,3.50
2019-02-21T07:41:04.673Z,3.60
2019-02-21T07:42:05.166Z,3.60
2019-02-21T07:43:04.633Z,3.60
2019-02-21T07:44:11.861Z,3.70
2019-02-21T07:45:04.941Z,3.70
2019-02-21T07:46:06.831Z,3.80
2019-02-21T07:47:05.181Z,3.80
2019-02-21T07:48:04.982Z,3.80
2019-02-21T07:49:15.293Z,3.90
2019-02-21T07:50:04.666Z,3.90
2019-02-21T07:51:04.929Z,3.90
2019-02-21T07:52:05.585Z,4.00
2019-02-21T07:53:04.433Z,4.00
2019-02-21T07:54:04.655Z,4.00
2019-02-21T07:55:04.908Z,4.00
2019-02-21T07:56:05.018Z,4.00
2019-02-21T07:57:04.340Z,4.10
2019-02-21T07:58:04.535Z,4.10
2019-02-21T07:59:04.975Z,4.10
2019-02-21T08:00:04.165Z,4.10
2019-02-21T08:01:04.928Z,4.10
2019-02-21T08:02:05.192Z,4.20
2019-02-21T08:03:04.874Z,4.20
2019-02-21T08:04:05.227Z,4.20
2019-02-21T08:05:04.264Z,4.20
2019-02-21T08:06:04.387Z,4.20
2019-02-21T08:07:05.055Z,4.30
2019-02-21T08:08:04.431Z,4.30
2019-02-21T08:09:04.664Z,4.30
2019-02-21T08:10:04.481Z,4.30
2019-02-21T08:11:06.765Z,4.40
2019-02-21T08:12:05.046Z,4.40
2019-02-21T08:13:05.000Z,4.40
2019-02-21T08:14:05.247Z,4.40
2019-02-21T08:15:04.219Z,4.40
2019-02-21T08:16:04.591Z,4.50
2019-02-21T08:17:04.468Z,4.50
2019-02-21T08:18:04.692Z,4.50
2019-02-21T08:19:04.252Z,4.50
2019-02-21T08:20:08.105Z,4.60
2019-02-21T08:21:04.533Z,4.60
2019-02-21T08:22:05.049Z,4.60
2019-02-21T08:23:05.188Z,4.60
2019-02-21T08:24:04.433Z,4.60
2019-02-21T08:25:04.984Z,4.70
2019-02-21T08:26:04.476Z,4.70
2019-02-21T08:27:04.771Z,4.70
2019-02-21T08:28:05.316Z,4.70
2019-02-21T08:29:06.069Z,4.80
2019-02-21T08:30:04.969Z,4.80
2019-02-21T08:31:04.300Z,4.80
2019-02-21T08:32:04.512Z,4.80
2019-02-21T08:33:04.541Z,4.80
2019-02-21T08:34:04.934Z,4.80
2019-02-21T08:35:06.789Z,4.90
2019-02-21T08:36:04.656Z,4.90
2019-02-21T08:37:04.996Z,4.90
2019-02-21T08:38:04.532Z,5.00
2019-02-21T08:39:04.250Z,5.00
2019-02-21T08:40:04.924Z,5.00
2019-02-21T08:41:05.127Z,5.00
2019-02-21T08:42:04.230Z,5.10
2019-02-21T08:43:04.518Z,5.10
2019-02-21T08:44:05.065Z,5.10
2019-02-21T08:45:04.785Z,5.20
2019-02-21T08:46:05.007Z,5.20
2019-02-21T08:47:09.282Z,5.20
2019-02-21T08:48:04.865Z,5.30
2019-02-21T08:49:04.946Z,5.30
2019-02-21T08:50:04.667Z,5.40
2019-02-21T08:51:06.172Z,5.40
2019-02-21T08:52:04.487Z,5.40
2019-02-21T08:53:05.083Z,5.40
2019-02-21T08:54:05.728Z,5.50
2019-02-21T08:55:04.591Z,5.50
2019-02-21T08:56:04.883Z,5.50
2019-02-21T08:57:04.920Z,5.50
2019-02-21T08:58:04.726Z,5.50
2019-02-21T08:59:04.790Z,5.50
2019-02-21T09:00:05.284Z,5.50
2019-02-21T09:01:04.635Z,5.60
2019-02-21T09:02:05.124Z,5.60
2019-02-21T09:03:04.850Z,5.60
2019-02-21T09:04:10.297Z,5.60
2019-02-21T09:05:04.304Z,5.60
2019-02-21T09:06:04.650Z,5.70
2019-02-21T09:07:04.833Z,5.70
2019-02-21T09:08:04.973Z,5.70
2019-02-21T09:09:04.299Z,5.80
2019-02-21T09:10:04.327Z,5.80
2019-02-21T09:11:04.785Z,5.80
2019-02-21T09:12:05.703Z,5.80
2019-02-21T09:13:04.664Z,5.90
2019-02-21T09:14:04.775Z,5.90
2019-02-21T09:15:04.429Z,5.90
2019-02-21T09:16:05.143Z,6.00
2019-02-21T09:17:04.393Z,6.00
2019-02-21T09:18:05.016Z,6.00
2019-02-21T09:19:04.797Z,6.10
2019-02-21T09:20:05.147Z,6.10
2019-02-21T09:21:04.451Z,6.20
2019-02-21T09:22:05.052Z,6.20
2019-02-21T09:23:05.154Z,6.20
2019-02-21T09:24:04.318Z,6.30
2019-02-21T09:25:04.463Z,6.40
2019-02-21T09:26:04.206Z,6.40
2019-02-21T09:27:04.793Z,6.50
2019-02-21T09:28:04.531Z,6.60
2019-02-21T09:29:10.114Z,6.60
2019-02-21T09:30:05.203Z,6.60
2019-02-21T09:31:04.996Z,6.70
2019-02-21T09:32:06.817Z,6.70
2019-02-21T09:33:04.846Z,6.70
2019-02-21T09:34:04.434Z,6.80
2019-02-21T09:35:04.618Z,6.80
2019-02-21T09:36:04.289Z,6.80
2019-02-21T09:37:05.419Z,6.90
2019-02-21T09:38:04.414Z,6.90
2019-02-21T09:39:04.553Z,6.90
2019-02-21T09:40:04.788Z,7.00
2019-02-21T09:41:05.036Z,7.00
2019-02-21T09:42:04.233Z,7.00
2019-02-21T09:43:04.358Z,7.10
2019-02-21T09:44:05.018Z,7.10
2019-02-21T09:45:05.058Z,7.10
2019-02-21T09:46:04.982Z,7.20
2019-02-21T09:47:04.223Z,7.20
2019-02-21T09:48:04.383Z,7.30
2019-02-21T09:49:04.470Z,7.30
2019-02-21T09:50:04.770Z,7.40
2019-02-21T09:51:05.029Z,7.40
2019-02-21T09:52:04.290Z,7.50
2019-02-21T09:53:04.424Z,7.60
2019-02-21T09:54:04.749Z,7.60
2019-02-21T09:55:04.175Z,7.70
2019-02-21T09:56:04.683Z,7.70
2019-02-21T09:57:12.701Z,7.80
2019-02-21T09:58:05.193Z,7.80
2019-02-21T09:59:04.508Z,7.80
2019-02-21T10:00:04.644Z,7.90
2019-02-21T10:01:04.826Z,7.90
2019-02-21T10:02:05.206Z,7.90
2019-02-21T10:03:04.347Z,7.90
2019-02-21T10:04:04.709Z,8.00
2019-02-21T10:05:05.461Z,8.00
2019-02-21T10:06:04.692Z,8.00
2019-02-21T10:07:05.026Z,8.00
2019-02-21T10:08:04.326Z,8.00
2019-02-21T10:09:04.476Z,8.00
2019-02-21T10:10:04.713Z,8.00
2019-02-21T10:11:04.815Z,8.00
2019-02-21T10:12:04.664Z,8.00
2019-02-21T10:13:04.251Z,8.00
2019-02-21T10:14:04.995Z,8.00
2019-02-21T10:15:04.889Z,8.00
2019-02-21T10:16:05.274Z,8.10
2019-02-21T10:17:04.589Z,8.10
2019-02-21T10:18:04.513Z,8.10
2019-02-21T10:19:04.617Z,8.10
2019-02-21T10:20:05.171Z,8.10
2019-02-21T10:21:04.428Z,8.10
2019-02-21T10:22:04.840Z,8.10
2019-02-21T10:23:04.980Z,8.20
2019-02-21T10:24:05.303Z,8.20
2019-02-21T10:25:04.342Z,8.20
2019-02-21T10:26:04.424Z,8.20
2019-02-21T10:27:04.560Z,8.20
2019-02-21T10:28:04.232Z,8.30
2019-02-21T10:29:09.602Z,8.30
2019-02-21T10:30:04.981Z,8.30
2019-02-21T10:31:04.390Z,8.30
2019-02-21T10:32:04.947Z,8.30
2019-02-21T10:33:05.154Z,8.30
2019-02-21T10:34:04.347Z,8.30
2019-02-21T10:35:04.441Z,8.30
2019-02-21T10:36:04.646Z,8.30
2019-02-21T10:37:05.157Z,8.30
2019-02-21T10:38:04.268Z,8.30
2019-02-21T10:39:04.431Z,8.40
2019-02-21T10:40:04.708Z,8.40
2019-02-21T10:41:05.136Z,8.40
2019-02-21T10:42:04.216Z,8.40
2019-02-21T10:43:04.618Z,8.40
2019-02-21T10:44:04.945Z,8.40
2019-02-21T10:45:04.442Z,8.40
2019-02-21T10:46:04.712Z,8.40
2019-02-21T10:47:04.991Z,8.40
2019-02-21T10:48:04.230Z,8.40
2019-02-21T10:49:04.429Z,8.40
2019-02-21T10:50:05.107Z,8.40
2019-02-21T10:51:04.323Z,8.40
2019-02-21T10:52:04.430Z,8.40
2019-02-21T10:53:04.590Z,8.40
2019-02-21T10:54:05.120Z,8.40
2019-02-21T10:55:04.377Z,8.40
2019-02-21T10:56:04.952Z,8.40
2019-02-21T10:57:04.368Z,8.40
2019-02-21T10:58:05.078Z,8.40
2019-02-21T10:59:04.432Z,8.40
2019-02-21T11:00:04.974Z,8.40
2019-02-21T11:01:04.225Z,8.30
2019-02-21T11:02:04.573Z,8.30
2019-02-21T11:03:04.645Z,8.30
2019-02-21T11:04:04.943Z,8.30
2019-02-21T11:05:05.032Z,8.30
2019-02-21T11:06:04.226Z,8.30
2019-02-21T11:07:04.913Z,8.30
2019-02-21T11:08:04.192Z,8.30
2019-02-21T11:09:05.073Z,8.30
2019-02-21T11:10:05.139Z,8.30
2019-02-21T11:11:04.729Z,8.30
2019-02-21T11:12:05.309Z,8.30
2019-02-21T11:13:04.649Z,8.30
2019-02-21T11:14:04.783Z,8.30
2019-02-21T11:15:04.422Z,8.30
2019-02-21T11:16:05.222Z,8.30
2019-02-21T11:17:04.369Z,8.30
2019-02-21T11:18:04.630Z,8.30
2019-02-21T11:19:04.952Z,8.30
2019-02-21T11:20:04.325Z,8.30
2019-02-21T11:21:04.508Z,8.30
2019-02-21T11:22:04.857Z,8.30
2019-02-21T11:23:06.464Z,8.30
2019-02-21T11:24:04.515Z,8.30
2019-02-21T11:25:04.563Z,8.30
2019-02-21T11:26:04.292Z,8.30
2019-02-21T11:27:04.580Z,8.30
2019-02-21T11:28:05.168Z,8.30
2019-02-21T11:29:04.296Z,8.30
2019-02-21T11:30:04.756Z,8.30
2019-02-21T11:31:04.749Z,8.30
2019-02-21T11:32:04.896Z,8.30
2019-02-21T11:33:05.037Z,8.40
2019-02-21T11:34:04.317Z,8.40
2019-02-21T11:35:06.465Z,8.40
2019-02-21T11:36:04.579Z,8.40
2019-02-21T11:37:04.763Z,8.40
2019-02-21T11:38:09.837Z,8.40
2019-02-21T11:39:04.221Z,8.40
2019-02-21T11:40:05.648Z,8.40
2019-02-21T11:41:04.437Z,8.40
2019-02-21T11:42:05.112Z,8.40
2019-02-21T11:43:04.314Z,8.40
2019-02-21T11:44:04.406Z,8.40
2019-02-21T11:45:04.961Z,8.40
2019-02-21T11:46:05.233Z,8.40
2019-02-21T11:47:04.397Z,8.40
2019-02-21T11:48:04.743Z,8.40
2019-02-21T11:49:04.922Z,8.40
2019-02-21T11:50:04.550Z,8.40
2019-02-21T11:51:07.343Z,8.40
2019-02-21T11:52:09.986Z,8.50
2019-02-21T11:53:05.093Z,8.50
2019-02-21T11:54:04.636Z,8.50
2019-02-21T11:55:04.968Z,8.50
2019-02-21T11:56:05.245Z,8.50
2019-02-21T11:57:04.305Z,8.50
2019-02-21T11:58:04.687Z,8.50
2019-02-21T11:59:05.096Z,8.50
2019-02-21T12:00:04.518Z,8.50
2019-02-21T12:01:04.716Z,8.50
2019-02-21T12:02:04.230Z,8.50
2019-02-21T12:03:04.796Z,8.50
2019-02-21T12:04:05.197Z,8.50
2019-02-21T12:05:04.756Z,8.50
2019-02-21T12:06:05.111Z,8.50
2019-02-21T12:07:04.823Z,8.50
2019-02-21T12:08:04.993Z,8.50
2019-02-21T12:09:05.160Z,8.50
2019-02-21T12:10:04.569Z,8.50
2019-02-21T12:11:04.224Z,8.50
2019-02-21T12:12:04.488Z,8.50
2019-02-21T12:13:04.594Z,8.50
2019-02-21T12:14:04.694Z,8.50
2019-02-21T12:15:05.115Z,8.50
2019-02-21T12:16:04.634Z,8.50
2019-02-21T12:17:04.418Z,8.50
2019-02-21T12:18:04.922Z,8.60
2019-02-21T12:19:04.719Z,8.60
2019-02-21T12:20:04.373Z,8.60
2019-02-21T12:21:04.467Z,8.60
2019-02-21T12:22:05.081Z,8.60
2019-02-21T12:23:05.205Z,8.60
2019-02-21T12:24:04.296Z,8.70
2019-02-21T12:25:04.401Z,8.70
2019-02-21T12:26:04.731Z,8.70
2019-02-21T12:27:05.010Z,8.70
2019-02-21T12:28:05.110Z,8.80
2019-02-21T12:29:09.339Z,8.80
2019-02-21T12:30:04.825Z,8.80
2019-02-21T12:31:04.594Z,8.90
2019-02-21T12:32:04.841Z,8.90
2019-02-21T12:33:04.842Z,8.90
2019-02-21T12:34:05.230Z,8.90
2019-02-21T12:35:04.659Z,9.00
2019-02-21T12:36:04.812Z,9.00
2019-02-21T12:37:05.182Z,9.00
2019-02-21T12:38:04.541Z,9.10
2019-02-21T12:39:04.966Z,9.10
2019-02-21T12:40:04.402Z,9.10
2019-02-21T12:41:04.388Z,9.20
2019-02-21T12:42:04.509Z,9.20
2019-02-21T12:43:04.271Z,9.20
2019-02-21T12:44:04.435Z,9.30
2019-02-21T12:45:04.482Z,9.30
2019-02-21T12:46:05.088Z,9.30
2019-02-21T12:47:04.352Z,9.40
2019-02-21T12:48:04.476Z,9.40
2019-02-21T12:49:05.052Z,9.40
2019-02-21T12:50:04.397Z,9.40
2019-02-21T12:51:04.515Z,9.50
2019-02-21T12:52:05.043Z,9.50
2019-02-21T12:53:04.525Z,9.50
2019-02-21T12:54:05.123Z,9.50
2019-02-21T12:55:04.450Z,9.60
2019-02-21T12:56:04.512Z,9.60
2019-02-21T12:57:04.829Z,9.60
2019-02-21T12:58:04.304Z,9.60
2019-02-21T12:59:04.732Z,9.70
2019-02-21T13:00:05.042Z,9.70
2019-02-21T13:01:04.463Z,9.70
2019-02-21T13:02:05.040Z,9.70
2019-02-21T13:03:04.385Z,9.80
2019-02-21T13:04:04.573Z,9.80
2019-02-21T13:05:04.757Z,9.80
2019-02-21T13:06:04.349Z,9.80
2019-02-21T13:07:04.726Z,9.80
2019-02-21T13:08:04.968Z,9.90
2019-02-21T13:09:04.725Z,9.90
2019-02-21T13:10:04.908Z,9.90
2019-02-21T13:11:05.230Z,9.90
2019-02-21T13:12:04.644Z,9.90
2019-02-21T13:13:04.690Z,9.90
2019-02-21T13:14:04.470Z,10.00
2019-02-21T13:15:04.941Z,10.00
2019-02-21T13:16:04.508Z,10.00
2019-02-21T13:17:04.767Z,10.00
2019-02-21T13:18:14.971Z,10.00